createdAt,value
2018-04-13T03:22:12.457Z,82.79
2018-04-13T03:23:12.228Z,83.55
2018-04-13T03:24:12.256Z,82.69
2018-04-13T03:25:12.180Z,81.84
2018-04-13T03:26:12.233Z,82.07
2018-04-13T03:27:12.154Z,81.59
2018-04-13T03:28:12.190Z,82.41
2018-04-13T03:29:12.125Z,82.79
2018-04-13T03:30:12.124Z,83.36
2018-04-13T03:31:12.122Z,84.12
2018-04-13T03:32:12.107Z,84.41
2018-04-13T03:33:12.108Z,84.60
2018-04-13T03:34:12.284Z,84.22
2018-04-13T03:35:12.098Z,84.03
2018-04-13T03:36:20.787Z,83.74
2018-04-13T03:38:05.601Z,83.74
2018-04-13T03:39:05.538Z,84.22
2018-04-13T03:40:05.544Z,83.26
2018-04-13T03:41:05.578Z,81.78
2018-04-13T03:42:05.525Z,83.45
2018-04-13T03:43:05.488Z,83.45
2018-04-13T03:44:05.486Z,83.84
2018-04-13T03:45:05.469Z,84.60
2018-04-13T03:46:05.457Z,84.31
2018-04-13T03:47:05.515Z,83.84
2018-04-13T03:48:05.447Z,83.12
2018-04-13T03:49:05.485Z,83.36
2018-04-13T03:50:05.466Z,83.74
2018-04-13T03:51:05.461Z,83.84
2018-04-13T03:52:05.511Z,83.84
2018-04-13T03:53:05.425Z,84.41
2018-04-13T03:54:05.432Z,83.84
2018-04-13T03:55:05.429Z,84.22
2018-04-13T03:56:05.461Z,84.22
2018-04-13T03:57:05.419Z,84.41
2018-04-13T03:58:05.447Z,84.41
2018-04-13T03:59:05.405Z,84.03
2018-04-13T04:00:14.227Z,84.22
2018-04-13T04:01:58.894Z,85.36
2018-04-13T04:02:58.804Z,84.69
2018-04-13T04:03:58.828Z,84.03
2018-04-13T04:04:58.831Z,84.41
2018-04-13T04:05:58.791Z,84.41
2018-04-13T04:06:58.807Z,84.41
2018-04-13T04:07:58.804Z,84.50
2018-04-13T04:08:58.755Z,84.31
2018-04-13T04:09:58.754Z,84.98
2018-04-13T04:10:58.796Z,85.08
2018-04-13T04:11:58.790Z,85.93
2018-04-13T04:12:58.739Z,86.03
2018-04-13T04:13:58.749Z,85.74
2018-04-13T04:14:58.798Z,85.93
2018-04-13T04:15:58.737Z,85.64
2018-04-13T04:16:58.724Z,86.12
2018-04-13T04:17:58.727Z,85.64
2018-04-13T04:18:58.793Z,85.93
2018-04-13T04:19:58.727Z,86.60
2018-04-13T04:20:58.733Z,86.41
2018-04-13T04:21:58.740Z,86.51
2018-04-13T04:22:58.707Z,86.60
2018-04-13T04:23:58.744Z,86.79
2018-04-13T04:24:58.697Z,85.55
2018-04-13T04:25:58.728Z,85.55
2018-04-13T04:26:58.690Z,86.69
2018-04-13T04:27:58.700Z,85.93
2018-04-13T04:28:58.685Z,86.79
2018-04-13T04:29:58.693Z,86.60
2018-04-13T04:30:58.709Z,87.55
2018-04-13T04:31:58.681Z,86.03
2018-04-13T04:32:58.671Z,84.92
2018-04-13T04:33:58.713Z,83.78
2018-04-13T04:34:58.664Z,85.69
2018-04-13T04:35:58.690Z,85.93
2018-04-13T04:36:58.658Z,85.84
2018-04-13T04:37:58.653Z,86.03
2018-04-13T04:38:58.651Z,86.51
2018-04-13T04:39:58.666Z,87.55
2018-04-13T04:40:58.662Z,86.69
2018-04-13T04:41:58.642Z,85.88
2018-04-13T04:42:58.637Z,85.78
2018-04-13T04:43:58.629Z,86.69
2018-04-13T04:44:58.652Z,87.27
2018-04-13T04:45:58.626Z,87.17
2018-04-13T04:46:58.622Z,86.07
2018-04-13T04:47:58.617Z,86.16
2018-04-13T04:49:09.079Z,87.02
2018-04-13T04:50:52.082Z,87.55
2018-04-13T04:51:52.084Z,87.88
2018-04-13T04:52:52.024Z,88.31
2018-04-13T04:53:52.045Z,88.12
2018-04-13T04:54:52.052Z,88.70
2018-04-13T04:55:52.002Z,88.60
2018-04-13T04:56:51.975Z,85.78
2018-04-13T04:57:51.986Z,86.74
2018-04-13T04:58:51.969Z,87.60
2018-04-13T04:59:51.990Z,86.93
2018-04-13T05:00:51.984Z,87.84
2018-04-13T05:01:52.049Z,88.26
2018-04-13T05:02:51.973Z,88.79
2018-04-13T05:03:52.107Z,88.45
2018-04-13T05:04:52.000Z,87.69
2018-04-13T05:05:52.028Z,85.60
2018-04-13T05:06:52.005Z,85.69
2018-04-13T05:07:51.984Z,85.88
2018-04-13T05:08:51.942Z,85.78
2018-04-13T05:09:52.001Z,86.26
2018-04-13T05:10:51.949Z,87.60
2018-04-13T05:11:51.985Z,85.60
2018-04-13T05:12:51.920Z,84.30
2018-04-13T05:13:51.930Z,84.49
2018-04-13T05:14:51.973Z,84.49
2018-04-13T05:15:51.996Z,84.40
2018-04-13T05:16:51.937Z,84.97
2018-04-13T05:17:51.967Z,84.40
2018-04-13T05:18:51.901Z,84.49
2018-04-13T05:19:51.907Z,85.69
2018-04-13T05:20:51.916Z,85.97
2018-04-13T05:21:51.914Z,85.69
2018-04-13T05:22:51.897Z,84.69
2018-04-13T05:23:51.905Z,85.45
2018-04-13T05:24:51.951Z,86.11
2018-04-13T05:25:51.916Z,84.69
2018-04-13T05:26:51.910Z,85.35
2018-04-13T05:27:51.912Z,84.78
2018-04-13T05:28:51.871Z,84.40
2018-04-13T05:29:51.963Z,84.20
2018-04-13T05:30:51.890Z,84.78
2018-04-13T05:31:51.898Z,85.16
2018-04-13T05:32:51.948Z,85.83
2018-04-13T05:33:51.860Z,85.93
2018-04-13T05:34:51.921Z,85.45
2018-04-13T05:35:51.877Z,85.54
2018-04-13T05:36:51.853Z,85.16
2018-04-13T05:37:51.870Z,85.83
2018-04-13T05:38:51.887Z,84.88
2018-04-13T05:39:51.844Z,84.97
2018-04-13T05:40:51.898Z,85.25
2018-04-13T05:41:51.860Z,84.69
2018-04-13T05:42:51.862Z,84.11
2018-04-13T05:43:51.847Z,84.88
2018-04-13T05:44:51.864Z,84.78
2018-04-13T05:45:51.875Z,85.35
2018-04-13T05:46:51.855Z,85.35
2018-04-13T05:47:52.719Z,85.25
2018-04-13T05:48:51.956Z,84.40
2018-04-13T05:49:51.817Z,84.01
2018-04-13T05:50:51.801Z,84.40
2018-04-13T05:51:52.704Z,83.92
2018-04-13T05:52:51.845Z,83.83
2018-04-13T05:53:51.805Z,84.59
2018-04-13T05:54:51.828Z,84.30
2018-04-13T05:56:01.321Z,83.83
2018-04-13T05:57:45.313Z,83.54
2018-04-13T06:00:07.524Z,82.78
2018-04-13T06:01:07.347Z,83.16
2018-04-13T06:02:07.231Z,83.16
2018-04-13T06:03:07.431Z,82.78
2018-04-13T06:04:07.274Z,82.01
2018-04-13T06:05:07.224Z,82.49
2018-04-13T06:06:07.218Z,82.68
2018-04-13T06:07:07.187Z,82.01
2018-04-13T06:08:07.180Z,82.59
2018-04-13T06:09:07.230Z,82.78
2018-04-13T06:10:07.236Z,83.16
2018-04-13T06:11:07.177Z,82.78
2018-04-13T06:12:07.197Z,83.06
2018-04-13T06:13:07.201Z,83.16
2018-04-13T06:14:07.159Z,82.68
2018-04-13T06:15:07.188Z,83.16
2018-04-13T06:16:07.154Z,82.87
2018-04-13T06:17:07.187Z,82.68
2018-04-13T06:18:07.159Z,82.97
2018-04-13T06:19:07.177Z,82.59
2018-04-13T06:20:07.181Z,83.16
2018-04-13T06:21:07.135Z,82.87
2018-04-13T06:22:07.143Z,82.68
2018-04-13T06:23:07.155Z,83.25
2018-04-13T06:24:07.142Z,82.78
2018-04-13T06:25:07.142Z,82.78
2018-04-13T06:26:07.122Z,83.06
2018-04-13T06:27:07.119Z,82.97
2018-04-13T06:28:07.124Z,82.68
2018-04-13T06:29:07.110Z,82.20
2018-04-13T06:30:07.113Z,82.01
2018-04-13T06:31:07.132Z,82.01
2018-04-13T06:32:07.107Z,82.59
2018-04-13T06:33:07.106Z,82.49
2018-04-13T06:34:07.127Z,82.34
2018-04-13T06:35:07.095Z,82.40
2018-04-13T06:36:07.081Z,82.34
2018-04-13T06:37:07.168Z,82.01
2018-04-13T06:38:07.138Z,81.38
2018-04-13T06:39:07.079Z,81.77
2018-04-13T06:40:07.075Z,81.63
2018-04-13T06:41:07.071Z,81.29
2018-04-13T06:42:07.068Z,81.63
2018-04-13T06:43:07.073Z,81.48
2018-04-13T06:44:07.081Z,81.38
2018-04-13T06:45:07.077Z,81.35
2018-04-13T06:46:07.056Z,81.77
2018-04-13T06:47:07.048Z,81.67
2018-04-13T06:48:07.063Z,81.67
2018-04-13T06:49:07.042Z,80.91
2018-04-13T06:50:07.038Z,81.01
2018-04-13T06:51:07.047Z,81.20
2018-04-13T06:52:07.049Z,81.77
2018-04-13T06:53:07.062Z,81.20
2018-04-13T06:54:07.076Z,81.29
2018-04-13T06:55:07.084Z,80.72
2018-04-13T06:56:07.057Z,81.10
2018-04-13T06:57:07.023Z,81.10
2018-04-13T06:58:07.016Z,81.01
2018-04-13T06:59:07.010Z,81.20
2018-04-13T07:00:07.020Z,81.10
2018-04-13T07:01:07.008Z,80.62
2018-04-13T07:02:07.006Z,80.53
2018-04-13T07:03:07.016Z,80.91
2018-04-13T07:04:07.000Z,80.43
2018-04-13T07:05:06.996Z,80.53
2018-04-13T07:06:07.023Z,80.81
2018-04-13T07:07:06.988Z,80.15
2018-04-13T07:08:07.003Z,80.24
2018-04-13T07:09:06.981Z,80.15
2018-04-13T07:10:06.977Z,80.15
2018-04-13T07:11:06.978Z,80.24
2018-04-13T07:12:06.972Z,80.53
2018-04-13T07:13:06.991Z,80.05
2018-04-13T07:14:06.982Z,80.33
2018-04-13T07:15:06.990Z,80.15
2018-04-13T07:16:06.961Z,80.43
2018-04-13T07:17:06.961Z,80.05
2018-04-13T07:18:06.961Z,79.86
2018-04-13T07:19:06.953Z,80.05
2018-04-13T07:20:06.957Z,79.57
2018-04-13T07:21:06.951Z,79.96
2018-04-13T07:22:06.939Z,79.96
2018-04-13T07:23:06.960Z,79.52
2018-04-13T07:24:06.940Z,79.80
2018-04-13T07:25:06.945Z,79.61
2018-04-13T07:26:06.947Z,79.52
2018-04-13T07:27:06.967Z,79.61
2018-04-13T07:28:06.920Z,79.23
2018-04-13T07:29:06.977Z,79.04
2018-04-13T07:30:06.921Z,79.43
2018-04-13T07:31:06.917Z,79.23
2018-04-13T07:32:06.916Z,79.04
2018-04-13T07:33:07.411Z,79.43
2018-04-13T07:34:07.088Z,79.23
2018-04-13T07:35:07.163Z,79.04
2018-04-13T07:36:07.450Z,78.85
2018-04-13T07:37:06.922Z,79.04
2018-04-13T07:38:06.950Z,78.94
2018-04-13T07:39:06.886Z,78.85
2018-04-13T07:40:06.887Z,78.56
2018-04-13T07:41:14.110Z,78.75
2018-04-13T07:43:00.316Z,77.99
2018-04-13T07:44:00.268Z,78.18
2018-04-13T07:45:00.343Z,78.47
2018-04-13T07:46:00.343Z,78.37
2018-04-13T07:47:00.265Z,78.18
2018-04-13T07:48:00.289Z,77.99
2018-04-13T07:49:00.272Z,77.99
2018-04-13T07:50:00.268Z,78.18
2018-04-13T07:51:00.266Z,78.18
2018-04-13T07:52:00.248Z,78.09
2018-04-13T07:53:00.246Z,77.70
2018-04-13T07:54:00.321Z,77.70
2018-04-13T07:55:00.254Z,77.42
2018-04-13T07:56:00.245Z,77.23
2018-04-13T07:57:00.226Z,76.94
2018-04-13T07:58:00.232Z,77.23
2018-04-13T07:59:00.554Z,77.03
2018-04-13T08:00:00.236Z,77.70
2018-04-13T08:01:00.239Z,77.61
2018-04-13T08:02:00.217Z,77.99
2018-04-13T08:03:00.242Z,79.04
2018-04-13T08:04:00.204Z,79.71
2018-04-13T08:05:00.212Z,80.95
2018-04-13T08:06:00.212Z,81.71
2018-04-13T08:07:00.202Z,81.90
2018-04-13T08:08:00.233Z,82.38
2018-04-13T08:09:00.201Z,83.53
2018-04-13T08:10:00.217Z,83.20
2018-04-13T08:11:08.875Z,82.38
2018-04-13T08:12:53.603Z,82.34
2018-04-13T08:14:02.514Z,82.06
2018-04-13T08:15:48.648Z,83.01
2018-04-13T08:18:10.198Z,83.48
2018-04-13T08:20:32.347Z,82.24
2018-04-13T08:21:32.192Z,82.86
2018-04-13T08:22:32.239Z,83.29
2018-04-13T08:23:32.225Z,83.39
2018-04-13T08:24:32.201Z,83.01
2018-04-13T08:25:32.198Z,83.29
2018-04-13T08:26:32.187Z,82.76
2018-04-13T08:27:32.169Z,82.57
2018-04-13T08:28:32.214Z,83.01
2018-04-13T08:29:32.181Z,82.95
2018-04-13T08:30:32.173Z,82.91
2018-04-13T08:31:32.156Z,82.72
2018-04-13T08:32:32.148Z,83.01
2018-04-13T08:33:32.148Z,83.77
2018-04-13T08:34:32.152Z,83.53
2018-04-13T08:35:32.227Z,83.34
2018-04-13T08:36:32.159Z,82.86
2018-04-13T08:37:32.162Z,83.24
2018-04-13T08:38:32.135Z,82.67
2018-04-13T08:39:32.144Z,82.67
2018-04-13T08:40:32.132Z,82.76
2018-04-13T08:41:32.159Z,83.96
2018-04-13T08:42:32.201Z,82.76
2018-04-13T08:43:32.127Z,83.20
2018-04-13T08:44:32.112Z,83.91
2018-04-13T08:45:32.116Z,83.62
2018-04-13T08:46:32.125Z,83.53
2018-04-13T08:47:32.110Z,84.06
2018-04-13T08:48:32.106Z,84.00
2018-04-13T08:49:32.158Z,83.24
2018-04-13T08:50:32.117Z,83.43
2018-04-13T08:51:32.136Z,83.34
2018-04-13T08:52:32.123Z,82.76
2018-04-13T08:53:32.092Z,84.00
2018-04-13T08:54:32.185Z,82.76
2018-04-13T08:55:32.120Z,83.34
2018-04-13T08:56:32.080Z,83.34
2018-04-13T08:57:32.082Z,83.81
2018-04-13T08:58:32.093Z,84.00
2018-04-13T08:59:32.077Z,83.05
2018-04-13T09:00:32.080Z,83.05
2018-04-13T09:01:32.117Z,83.53
2018-04-13T09:02:32.082Z,83.34
2018-04-13T09:03:32.071Z,84.00
2018-04-13T09:04:32.107Z,84.10
2018-04-13T09:05:32.055Z,83.91
2018-04-13T09:06:32.112Z,84.86
2018-04-13T09:07:32.082Z,84.48
2018-04-13T09:08:32.054Z,85.21
2018-04-13T09:09:32.058Z,85.30
2018-04-13T09:10:32.045Z,84.86
2018-04-13T09:11:32.087Z,84.86
2018-04-13T09:12:32.097Z,85.15
2018-04-13T09:13:32.034Z,86.20
2018-04-13T09:14:32.083Z,85.63
2018-04-13T09:15:32.071Z,85.15
2018-04-13T09:16:32.029Z,85.05
2018-04-13T09:17:32.024Z,85.34
2018-04-13T09:18:32.029Z,84.20
2018-04-13T09:19:32.020Z,83.91
2018-04-13T09:20:32.041Z,84.86
2018-04-13T09:21:32.049Z,84.72
2018-04-13T09:22:32.068Z,85.15
2018-04-13T09:23:32.068Z,85.72
2018-04-13T09:24:32.026Z,85.44
2018-04-13T09:25:32.003Z,85.91
2018-04-13T09:26:32.002Z,86.01
2018-04-13T09:27:32.003Z,85.72
2018-04-13T09:28:32.028Z,85.05
2018-04-13T09:29:31.997Z,84.67
2018-04-13T09:30:32.036Z,85.05
2018-04-13T09:31:32.005Z,85.82
2018-04-13T09:32:32.022Z,84.77
2018-04-13T09:33:32.057Z,85.15
2018-04-13T09:34:32.007Z,85.72
2018-04-13T09:35:32.051Z,84.67
2018-04-13T09:36:32.008Z,85.05
2018-04-13T09:37:32.155Z,85.72
2018-04-13T09:38:31.971Z,86.01
2018-04-13T09:39:31.977Z,87.06
2018-04-13T09:40:31.974Z,86.96
2018-04-13T09:41:31.966Z,86.01
2018-04-13T09:42:31.977Z,85.34
2018-04-13T09:43:31.995Z,86.01
2018-04-13T09:44:31.994Z,85.44
2018-04-13T09:45:32.015Z,86.01
2018-04-13T09:46:31.988Z,85.82
2018-04-13T09:47:31.992Z,85.91
2018-04-13T09:48:31.957Z,86.10
2018-04-13T09:49:31.979Z,84.86
2018-04-13T09:50:31.945Z,84.29
2018-04-13T09:51:31.952Z,85.44
2018-04-13T09:52:31.937Z,85.72
2018-04-13T09:53:31.933Z,85.34
2018-04-13T09:54:31.943Z,85.72
2018-04-13T09:55:31.938Z,85.91
2018-04-13T09:56:31.934Z,84.77
2018-04-13T09:57:31.961Z,85.72
2018-04-13T09:58:31.925Z,84.77
2018-04-13T09:59:31.932Z,85.34
2018-04-13T10:00:31.921Z,85.15
2018-04-13T10:01:31.921Z,85.15
2018-04-13T10:02:31.917Z,84.58
2018-04-13T10:03:31.915Z,83.62
2018-04-13T10:04:31.913Z,84.00
2018-04-13T10:05:31.916Z,82.76
2018-04-13T10:06:31.922Z,82.38
2018-04-13T10:07:40.601Z,83.24
2018-04-13T10:09:25.318Z,81.33
2018-04-13T10:10:25.301Z,81.33
2018-04-13T10:11:25.297Z,80.95
2018-04-13T10:12:25.313Z,81.33
2018-04-13T10:13:25.292Z,81.24
2018-04-13T10:14:25.318Z,80.95
2018-04-13T10:15:25.290Z,81.33
2018-04-13T10:16:25.325Z,81.24
2018-04-13T10:17:25.315Z,80.85
2018-04-13T10:18:25.284Z,81.14
2018-04-13T10:19:25.279Z,80.95
2018-04-13T10:20:25.278Z,81.24
2018-04-13T10:21:25.295Z,81.20
2018-04-13T10:22:25.300Z,81.43
2018-04-13T10:23:25.299Z,81.33
2018-04-13T10:24:25.289Z,81.20
2018-04-13T10:25:25.460Z,81.29
2018-04-13T10:26:25.287Z,81.43
2018-04-13T10:27:25.264Z,82.15
2018-04-13T10:28:25.259Z,82.19
2018-04-13T10:29:25.265Z,81.71
2018-04-13T10:30:25.257Z,81.38
2018-04-13T10:31:25.254Z,81.86
2018-04-13T10:32:25.254Z,81.24
2018-04-13T10:33:25.281Z,80.76
2018-04-13T10:34:25.253Z,81.38
2018-04-13T10:35:25.251Z,81.58
2018-04-13T10:36:25.246Z,82.06
2018-04-13T10:37:25.258Z,81.71
2018-04-13T10:38:25.265Z,81.24
2018-04-13T10:39:25.268Z,81.43
2018-04-13T10:40:33.980Z,81.29
2018-04-13T10:42:18.679Z,81.81
2018-04-13T10:43:18.648Z,82.82
2018-04-13T10:45:12.050Z,82.82
2018-04-13T10:46:12.034Z,82.95
2018-04-13T10:47:12.065Z,82.38
2018-04-13T10:48:12.055Z,83.24
2018-04-13T10:49:12.039Z,83.43
2018-04-13T10:50:12.040Z,82.86
2018-04-13T10:51:12.040Z,83.24
2018-04-13T10:52:12.120Z,83.24
2018-04-13T10:53:12.015Z,84.53
2018-04-13T10:54:12.037Z,84.63
2018-04-13T10:55:12.009Z,85.49
2018-04-13T10:56:12.008Z,85.77
2018-04-13T10:57:12.008Z,86.06
2018-04-13T10:58:12.005Z,86.82
2018-04-13T10:59:12.009Z,86.35
2018-04-13T11:00:12.031Z,85.97
2018-04-13T11:01:12.015Z,85.82
2018-04-13T11:02:12.029Z,84.20
2018-04-13T11:03:12.017Z,84.00
2018-04-13T11:04:12.005Z,84.20
2018-04-13T11:05:12.002Z,83.72
2018-04-13T11:06:12.092Z,83.81
2018-04-13T11:07:11.992Z,83.43
2018-04-13T11:08:11.986Z,83.62
2018-04-13T11:09:12.011Z,83.43
2018-04-13T11:10:11.984Z,84.96
2018-04-13T11:11:12.031Z,86.20
2018-04-13T11:12:12.056Z,85.34
2018-04-13T11:13:12.009Z,85.44
2018-04-13T11:14:12.060Z,84.86
2018-04-13T11:15:12.058Z,84.48
2018-04-13T11:16:11.996Z,83.67
2018-04-13T11:17:11.968Z,83.86
2018-04-13T11:18:11.965Z,84.91
2018-04-13T11:19:12.030Z,85.15
2018-04-13T11:20:12.021Z,86.01
2018-04-13T11:21:12.010Z,85.44
2018-04-13T11:22:11.984Z,85.72
2018-04-13T11:23:11.989Z,84.96
2018-04-13T11:24:11.951Z,85.82
2018-04-13T11:25:12.002Z,86.49
2018-04-13T11:26:11.969Z,86.10
2018-04-13T11:27:11.981Z,86.01
2018-04-13T11:28:11.988Z,85.15
2018-04-13T11:29:11.967Z,85.72
2018-04-13T11:30:11.979Z,86.96
2018-04-13T11:31:11.954Z,87.63
2018-04-13T11:32:11.929Z,88.40
2018-04-13T11:33:11.950Z,87.44
2018-04-13T11:34:11.965Z,86.10
2018-04-13T11:35:11.930Z,86.39
2018-04-13T11:36:11.949Z,87.54
2018-04-13T11:37:11.992Z,86.39
2018-04-13T11:38:11.922Z,86.24
2018-04-13T11:39:11.927Z,85.86
2018-04-13T11:40:11.925Z,85.91
2018-04-13T11:41:11.917Z,88.68
2018-04-13T11:42:11.920Z,89.16
2018-04-13T11:43:12.000Z,87.82
2018-04-13T11:44:11.910Z,86.87
2018-04-13T11:45:11.931Z,87.82
2018-04-13T11:46:11.903Z,87.63
2018-04-13T11:47:11.907Z,89.35
2018-04-13T11:48:11.912Z,88.97
2018-04-13T11:49:11.927Z,89.92
2018-04-13T11:50:11.903Z,88.68
2018-04-13T11:51:11.904Z,88.97
2018-04-13T11:52:11.890Z,88.49
2018-04-13T11:53:11.934Z,88.78
2018-04-13T11:54:11.924Z,89.54
2018-04-13T11:55:11.909Z,88.68
2018-04-13T11:56:11.999Z,89.64
2018-04-13T11:57:11.982Z,89.16
2018-04-13T11:58:11.882Z,87.35
2018-04-13T11:59:11.897Z,87.15
2018-04-13T12:00:11.889Z,88.78
2018-04-13T12:01:11.909Z,87.82
2018-04-13T12:02:11.877Z,89.64
2018-04-13T12:03:11.877Z,89.06
2018-04-13T12:04:11.865Z,88.20
2018-04-13T12:05:11.871Z,88.78
2018-04-13T12:06:11.862Z,87.82
2018-04-13T12:07:11.865Z,90.40
2018-04-13T12:08:11.869Z,91.36
2018-04-13T12:09:11.900Z,91.26
2018-04-13T12:10:11.901Z,88.87
2018-04-13T12:11:11.872Z,90.88
2018-04-13T12:12:11.868Z,88.01
2018-04-13T12:13:11.859Z,89.35
2018-04-13T12:14:11.897Z,88.25
2018-04-13T12:15:11.847Z,89.45
2018-04-13T12:16:11.861Z,89.35
2018-04-13T12:17:11.845Z,89.16
2018-04-13T12:18:11.853Z,89.64
2018-04-13T12:19:11.852Z,89.83
2018-04-13T12:20:11.875Z,89.64
2018-04-13T12:21:11.843Z,90.69
2018-04-13T12:22:11.858Z,88.54
2018-04-13T12:23:11.847Z,89.54
2018-04-13T12:24:11.833Z,89.92
2018-04-13T12:25:11.859Z,89.25
2018-04-13T12:26:11.854Z,88.49
2018-04-13T12:27:11.849Z,88.15
2018-04-13T12:28:11.838Z,88.06
2018-04-13T12:29:11.827Z,88.49
2018-04-13T12:30:11.823Z,90.69
2018-04-13T12:31:11.821Z,89.64
2018-04-13T12:32:11.825Z,91.07
2018-04-13T12:33:11.841Z,90.50
2018-04-13T12:34:11.815Z,90.69
2018-04-13T12:35:11.818Z,90.69
2018-04-13T12:36:11.985Z,89.45
2018-04-13T12:37:11.859Z,89.06
2018-04-13T12:38:11.833Z,88.87
2018-04-13T12:39:11.809Z,89.83
2018-04-13T12:40:11.826Z,89.59
2018-04-13T12:41:11.853Z,89.64
2018-04-13T12:42:11.813Z,88.78
2018-04-13T12:43:11.809Z,88.54
2018-04-13T12:44:11.801Z,88.92
2018-04-13T12:45:12.250Z,88.92
2018-04-13T12:46:11.808Z,88.34
2018-04-13T12:47:11.833Z,89.92
2018-04-13T12:48:11.804Z,89.64
2018-04-13T12:49:11.794Z,89.01
2018-04-13T12:50:11.805Z,88.44
2018-04-13T12:51:11.851Z,89.16
2018-04-13T12:52:11.784Z,90.21
2018-04-13T12:53:11.878Z,89.20
2018-04-13T12:54:11.785Z,89.35
2018-04-13T12:55:12.044Z,91.55
2018-04-13T12:56:11.779Z,90.88
2018-04-13T12:57:11.876Z,91.74
2018-04-13T12:58:11.924Z,90.97
2018-04-13T12:59:11.821Z,89.30
2018-04-13T13:00:21.556Z,91.16
2018-04-13T13:02:06.518Z,88.97
2018-04-13T13:03:06.261Z,89.49
2018-04-13T13:04:06.225Z,90.97
2018-04-13T13:05:06.301Z,89.54
2018-04-13T13:06:06.213Z,90.88
2018-04-13T13:07:06.214Z,90.88
2018-04-13T13:08:06.217Z,89.73
2018-04-13T13:09:06.198Z,90.88
2018-04-13T13:10:06.351Z,91.26
2018-04-13T13:11:06.227Z,91.74
2018-04-13T13:12:06.224Z,92.41
2018-04-13T13:13:06.227Z,92.50
2018-04-13T13:14:06.190Z,91.55
2018-04-13T13:15:06.239Z,91.26
2018-04-13T13:16:06.191Z,91.26
2018-04-13T13:17:06.183Z,91.45
2018-04-13T13:18:06.182Z,91.55
2018-04-13T13:19:06.192Z,90.31
2018-04-13T13:20:06.203Z,91.07
2018-04-13T13:21:06.180Z,90.11
2018-04-13T13:22:06.190Z,91.26
2018-04-13T13:23:06.244Z,90.59
2018-04-13T13:24:06.172Z,90.02
2018-04-13T13:25:06.206Z,90.50
2018-04-13T13:26:06.164Z,92.31
2018-04-13T13:27:06.174Z,90.78
2018-04-13T13:28:06.161Z,91.36
2018-04-13T13:29:06.160Z,91.45
2018-04-13T13:30:06.160Z,90.59
2018-04-13T13:31:06.199Z,91.93
2018-04-13T13:32:06.152Z,91.83
2018-04-13T13:33:06.155Z,92.69
2018-04-13T13:34:06.183Z,93.12
2018-04-13T13:35:06.162Z,91.74
2018-04-13T13:36:14.855Z,89.73
2018-04-13T13:37:59.605Z,91.36
2018-04-13T13:38:59.559Z,90.02
2018-04-13T13:39:59.550Z,88.82
2018-04-13T13:40:59.555Z,89.83
2018-04-13T13:41:59.552Z,91.26
2018-04-13T13:42:59.597Z,90.59
2018-04-13T13:43:59.599Z,91.45
2018-04-13T13:44:59.557Z,91.45
2018-04-13T13:45:59.580Z,91.45
2018-04-13T13:46:59.724Z,91.83
2018-04-13T13:47:59.536Z,91.26
2018-04-13T13:48:59.553Z,89.73
2018-04-13T13:49:59.580Z,89.73
2018-04-13T13:50:59.563Z,89.78
2018-04-13T13:51:59.634Z,89.54
2018-04-13T13:52:59.527Z,91.64
2018-04-13T13:53:59.606Z,91.74
2018-04-13T13:54:59.541Z,91.93
2018-04-13T13:55:59.590Z,91.74
2018-04-13T13:56:59.546Z,91.93
2018-04-13T13:57:59.522Z,91.83
2018-04-13T13:58:59.577Z,92.02
2018-04-13T13:59:59.703Z,92.60
2018-04-13T14:00:59.532Z,91.45
2018-04-13T14:01:59.528Z,92.31
2018-04-13T14:02:59.630Z,91.74
2018-04-13T14:03:59.593Z,90.50
2018-04-13T14:04:59.565Z,91.64
2018-04-13T14:05:59.512Z,91.55
2018-04-13T14:06:59.535Z,92.60
2018-04-13T14:07:59.535Z,92.60
2018-04-13T14:08:59.531Z,91.74
2018-04-13T14:09:59.532Z,92.88
2018-04-13T14:10:59.508Z,92.31
2018-04-13T14:11:59.544Z,91.64
2018-04-13T14:12:59.524Z,92.50
2018-04-13T14:13:59.515Z,92.41
2018-04-13T14:14:59.543Z,93.07
2018-04-13T14:15:59.576Z,92.41
2018-04-13T14:16:59.491Z,92.69
2018-04-13T14:17:59.530Z,92.21
2018-04-13T14:18:59.491Z,92.69
2018-04-13T14:19:59.512Z,92.41
2018-04-13T14:20:59.620Z,93.36
2018-04-13T14:21:59.582Z,92.41
2018-04-13T14:22:59.473Z,92.12
2018-04-13T14:23:59.468Z,93.36
2018-04-13T14:24:59.558Z,93.26
2018-04-13T14:25:59.479Z,92.97
2018-04-13T14:26:59.554Z,93.17
2018-04-13T14:27:59.465Z,93.17
2018-04-13T14:28:59.505Z,93.26
2018-04-13T14:29:59.473Z,95.08
2018-04-13T14:30:59.516Z,95.08
2018-04-13T14:31:59.485Z,94.79
2018-04-13T14:32:59.533Z,94.98
2018-04-13T14:33:59.466Z,94.60
2018-04-13T14:34:59.448Z,93.26
2018-04-13T14:36:00.052Z,92.69
2018-04-13T14:36:59.504Z,93.93
2018-04-13T14:37:59.476Z,94.60
2018-04-13T14:38:59.460Z,92.88
2018-04-13T14:39:59.477Z,92.88
2018-04-13T14:40:59.499Z,92.69
2018-04-13T14:41:59.485Z,92.16
2018-04-13T14:42:59.514Z,91.78
2018-04-13T14:43:59.464Z,92.97
2018-04-13T14:44:59.440Z,92.36
2018-04-13T14:45:59.488Z,92.55
2018-04-13T14:46:59.458Z,91.78
2018-04-13T14:47:59.431Z,92.74
2018-04-13T14:48:59.512Z,93.07
2018-04-13T14:49:59.432Z,93.17
2018-04-13T14:50:59.439Z,93.07
2018-04-13T14:51:59.453Z,92.50
2018-04-13T14:52:59.541Z,92.07
2018-04-13T14:53:59.530Z,91.59
2018-04-13T14:54:59.445Z,91.30
2018-04-13T14:55:59.665Z,91.59
2018-04-13T14:56:59.406Z,92.88
2018-04-13T14:57:59.402Z,92.60
2018-04-13T14:58:59.466Z,92.69
2018-04-13T14:59:59.406Z,92.79
2018-04-13T15:00:59.412Z,91.78
2018-04-13T15:01:59.491Z,91.59
2018-04-13T15:02:59.539Z,91.69
2018-04-13T15:03:59.411Z,90.45
2018-04-13T15:04:59.444Z,90.73
2018-04-13T15:05:59.452Z,90.16
2018-04-13T15:06:59.546Z,90.73
2018-04-13T15:07:59.471Z,90.06
2018-04-13T15:08:59.525Z,90.73
2018-04-13T15:09:59.381Z,90.83
2018-04-13T15:10:59.438Z,90.54
2018-04-13T15:11:59.387Z,90.92
2018-04-13T15:12:59.429Z,90.25
2018-04-13T15:13:59.392Z,89.59
2018-04-13T15:14:59.377Z,89.49
2018-04-13T15:15:59.614Z,90.73
2018-04-13T15:16:59.436Z,90.73
2018-04-13T15:17:59.578Z,90.92
2018-04-13T15:19:07.628Z,91.97
2018-04-13T15:20:52.904Z,91.40
2018-04-13T15:21:52.820Z,90.54
2018-04-13T15:22:52.773Z,91.30
2018-04-13T15:23:52.778Z,90.73
2018-04-13T15:24:52.773Z,91.21
2018-04-13T15:25:52.786Z,89.97
2018-04-13T15:26:53.006Z,91.30
2018-04-13T15:27:52.779Z,91.30
2018-04-13T15:28:52.772Z,91.21
2018-04-13T15:29:52.763Z,90.83
2018-04-13T15:30:52.772Z,89.92
2018-04-13T15:31:52.776Z,91.06
2018-04-13T15:32:52.782Z,91.59
2018-04-13T15:33:52.751Z,91.69
2018-04-13T15:34:52.809Z,91.93
2018-04-13T15:35:52.799Z,91.16
2018-04-13T15:36:52.830Z,90.97
2018-04-13T15:37:52.869Z,90.20
2018-04-13T15:38:52.752Z,89.53
2018-04-13T15:39:52.827Z,89.63
2018-04-13T15:40:52.761Z,90.11
2018-04-13T15:41:52.757Z,88.96
2018-04-13T15:42:52.750Z,90.30
2018-04-13T15:43:52.746Z,90.78
2018-04-13T15:44:52.750Z,88.87
2018-04-13T15:45:52.800Z,90.49
2018-04-13T15:46:52.756Z,90.97
2018-04-13T15:47:53.170Z,91.54
2018-04-13T15:48:52.902Z,90.88
2018-04-13T15:49:52.766Z,90.30
2018-04-13T15:50:52.744Z,90.78
2018-04-13T15:51:52.760Z,90.97
2018-04-13T15:52:52.814Z,90.78
2018-04-13T15:53:52.767Z,91.16
2018-04-13T15:54:52.757Z,90.97
2018-04-13T15:55:52.733Z,90.97
2018-04-13T15:56:52.780Z,88.96
2018-04-13T15:57:52.746Z,90.97
2018-04-13T15:58:52.737Z,89.73
2018-04-13T15:59:52.737Z,89.44
2018-04-13T16:00:52.748Z,89.15
2018-04-13T16:01:52.737Z,90.78
2018-04-13T16:02:52.734Z,91.25
2018-04-13T16:03:52.754Z,90.11
2018-04-13T16:04:52.750Z,89.06
2018-04-13T16:05:52.744Z,90.01
2018-04-13T16:06:52.724Z,89.63
2018-04-13T16:07:52.759Z,89.25
2018-04-13T16:08:52.758Z,89.06
2018-04-13T16:09:52.722Z,88.58
2018-04-13T16:10:52.721Z,88.77
2018-04-13T16:11:52.718Z,88.68
2018-04-13T16:12:52.737Z,88.87
2018-04-13T16:13:52.757Z,88.58
2018-04-13T16:14:52.722Z,89.15
2018-04-13T16:15:52.721Z,88.87
2018-04-13T16:16:52.721Z,89.92
2018-04-13T16:17:52.728Z,90.20
2018-04-13T16:18:52.811Z,90.78
2018-04-13T16:19:52.719Z,89.44
2018-04-13T16:20:52.751Z,90.78
2018-04-13T16:21:52.718Z,89.82
2018-04-13T16:22:52.720Z,89.44
2018-04-13T16:23:52.807Z,91.64
2018-04-13T16:24:52.719Z,91.54
2018-04-13T16:25:52.733Z,90.88
2018-04-13T16:26:52.702Z,90.59
2018-04-13T16:27:52.703Z,90.39
2018-04-13T16:28:52.701Z,90.11
2018-04-13T16:29:52.772Z,90.11